createdAt,value
2019-03-16T00:01:13.642Z,99736.15
2019-03-16T00:03:43.434Z,99730.69
2019-03-16T00:06:13.314Z,99736.73
2019-03-16T00:08:43.072Z,99750.33
2019-03-16T00:11:12.747Z,99755.71
2019-03-16T00:13:42.571Z,99759.34
2019-03-16T00:16:12.332Z,99753.95
2019-03-16T00:18:42.178Z,99756.80
2019-03-16T00:21:12.085Z,99759.92
2019-03-16T00:23:41.938Z,99764.74
2019-03-16T00:26:11.720Z,99765.07
2019-03-16T00:28:41.424Z,99750.56
2019-03-16T00:31:11.219Z,99749.58
2019-03-16T00:33:40.966Z,99768.00
2019-03-16T00:36:10.762Z,99764.91
2019-03-16T00:38:41.668Z,99767.78
2019-03-16T00:41:11.475Z,99778.78
2019-03-16T00:43:41.361Z,99778.92
2019-03-16T00:46:11.217Z,99779.13
2019-03-16T00:48:41.028Z,99780.36
2019-03-16T00:51:10.901Z,99767.27
2019-03-16T00:53:40.660Z,99785.22
2019-03-16T00:56:10.450Z,99785.80
2019-03-16T00:58:40.304Z,99787.45
2019-03-16T01:01:10.246Z,99791.12
2019-03-16T01:03:40.126Z,99798.05
2019-03-16T01:06:10.065Z,99802.58
2019-03-16T01:08:40.062Z,99808.36
2019-03-16T01:11:09.771Z,99823.77
2019-03-16T01:13:39.601Z,99819.66
2019-03-16T01:16:09.476Z,99814.70
2019-03-16T01:18:39.166Z,99815.20
2019-03-16T01:21:08.924Z,99820.38
2019-03-16T01:23:38.786Z,99821.85
2019-03-16T01:26:08.656Z,99825.41
2019-03-16T01:28:38.549Z,99826.19
2019-03-16T01:31:08.198Z,99834.89
2019-03-16T01:33:38.110Z,99835.61
2019-03-16T01:36:09.640Z,99834.97
2019-03-16T01:38:39.511Z,99846.39
2019-03-16T01:41:09.354Z,99838.39
2019-03-16T01:43:39.056Z,99835.25
2019-03-16T01:46:08.854Z,99846.67
2019-03-16T01:48:38.686Z,99846.89
2019-03-16T01:51:08.515Z,99849.01
2019-03-16T01:53:38.389Z,99846.76
2019-03-16T01:56:08.155Z,99846.44
2019-03-16T01:58:37.874Z,99844.67
2019-03-16T02:01:07.830Z,99852.13
2019-03-16T02:03:37.756Z,99861.59
2019-03-16T02:06:07.683Z,99864.99
2019-03-16T02:08:37.602Z,99859.20
2019-03-16T02:11:07.510Z,99869.28
2019-03-16T02:13:37.278Z,99871.81
2019-03-16T02:16:11.326Z,99870.45
2019-03-16T02:18:38.988Z,99879.20
2019-03-16T02:21:08.749Z,99883.78
2019-03-16T02:23:38.668Z,99883.75
2019-03-16T02:26:08.451Z,99887.67
2019-03-16T02:28:38.308Z,99898.50
2019-03-16T02:31:08.156Z,99902.70
2019-03-16T02:33:37.891Z,99903.47
2019-03-16T02:36:07.633Z,99912.19
2019-03-16T02:38:37.403Z,99925.48
2019-03-16T02:41:07.168Z,99926.13
2019-03-16T02:43:38.199Z,99924.94
2019-03-16T02:46:07.998Z,99929.40
2019-03-16T02:48:37.739Z,99928.78
2019-03-16T02:51:07.548Z,99930.81
2019-03-16T02:53:37.371Z,99940.73
2019-03-16T02:56:07.146Z,99943.08
2019-03-16T02:58:37.018Z,99938.80
2019-03-16T03:01:06.928Z,99945.55
2019-03-16T03:03:36.629Z,99945.55
2019-03-16T03:06:06.601Z,99954.38
2019-03-16T03:08:36.285Z,99949.56
2019-03-16T03:11:06.056Z,99943.28
2019-03-16T03:13:35.846Z,99956.73
2019-03-16T03:16:05.633Z,99962.41
2019-03-16T03:18:35.354Z,99966.66
2019-03-16T03:21:05.215Z,99973.16
2019-03-16T03:23:34.911Z,99977.19
2019-03-16T03:26:04.880Z,99970.20
2019-03-16T03:28:34.686Z,99976.48
2019-03-16T03:31:04.517Z,99979.55
2019-03-16T03:33:57.287Z,99985.34
2019-03-16T03:36:05.908Z,99998.09
2019-03-16T03:38:35.810Z,100002.56
2019-03-16T03:41:05.745Z,100002.99
2019-03-16T03:43:35.598Z,99999.33
2019-03-16T03:46:05.358Z,100007.13
2019-03-16T03:48:35.129Z,100014.56
2019-03-16T03:51:04.973Z,100019.03
2019-03-16T03:53:34.722Z,100021.87
2019-03-16T03:56:04.870Z,100021.33
2019-03-16T03:58:34.754Z,100023.30
2019-03-16T04:01:04.839Z,100023.55
2019-03-16T04:03:34.780Z,100025.36
2019-03-16T04:06:04.707Z,100033.66
2019-03-16T04:08:34.708Z,100039.69
2019-03-16T04:11:04.513Z,100033.75
2019-03-16T04:13:34.253Z,100032.33
2019-03-16T04:16:04.166Z,100038.77
2019-03-16T04:18:34.091Z,100032.23
2019-03-16T04:21:04.041Z,100033.19
2019-03-16T04:23:33.824Z,100028.32
2019-03-16T04:26:03.622Z,100032.79
2019-03-16T04:28:33.558Z,100032.67
2019-03-16T04:31:03.430Z,100027.55
2019-03-16T04:33:33.146Z,100027.55
2019-03-16T04:36:02.977Z,100020.34
2019-03-16T04:38:32.950Z,100016.14
2019-03-16T04:41:02.834Z,100022.73
2019-03-16T04:43:32.782Z,100033.09
2019-03-16T04:46:02.632Z,100035.06
2019-03-16T04:48:32.459Z,100041.61
2019-03-16T04:51:02.378Z,100037.88
2019-03-16T04:53:32.333Z,100043.77
2019-03-16T04:56:02.081Z,100048.27
2019-03-16T04:58:31.793Z,100046.63
2019-03-16T05:01:01.457Z,100046.41
2019-03-16T05:03:31.184Z,100052.95
2019-03-16T05:06:00.958Z,100058.63
2019-03-16T05:08:30.649Z,100056.90
2019-03-16T05:11:00.469Z,100063.98
2019-03-16T05:13:31.054Z,100063.19
2019-03-16T05:16:00.912Z,100062.78
2019-03-16T05:18:30.634Z,100076.75
2019-03-16T05:21:00.408Z,100082.20
2019-03-16T05:23:30.350Z,100072.58
2019-03-16T05:26:00.233Z,100085.38
2019-03-16T05:28:30.174Z,100087.63
2019-03-16T05:31:00.049Z,100090.28
2019-03-16T05:33:29.957Z,100092.13
2019-03-16T05:35:59.842Z,100100.86
2019-03-16T05:38:29.668Z,100116.45
2019-03-16T05:40:59.431Z,100114.45
2019-03-16T05:43:29.220Z,100118.05
2019-03-16T05:45:59.010Z,100123.62
2019-03-16T05:48:28.971Z,100126.57
2019-03-16T05:50:58.737Z,100128.67
2019-03-16T05:53:28.613Z,100132.86
2019-03-16T05:55:58.504Z,100138.27
2019-03-16T05:58:28.253Z,100142.23
2019-03-16T06:00:58.126Z,100146.70
2019-03-16T06:03:28.005Z,100146.12
2019-03-16T06:05:57.796Z,100148.30
2019-03-16T06:08:27.594Z,100150.91
2019-03-16T06:10:57.427Z,100150.91
2019-03-16T06:13:27.270Z,100146.00
2019-03-16T06:15:57.241Z,100155.27
2019-03-16T06:18:26.967Z,100148.62
2019-03-16T06:20:56.749Z,100145.13
2019-03-16T06:23:26.573Z,100150.80
2019-03-16T06:25:56.498Z,100157.22
2019-03-16T06:28:26.232Z,100153.19
2019-03-16T06:30:56.099Z,100152.31
2019-03-16T06:33:25.848Z,100151.12
2019-03-16T06:35:55.766Z,100140.21
2019-03-16T06:38:25.722Z,100143.88
2019-03-16T06:40:55.601Z,100147.69
2019-03-16T06:43:26.416Z,100149.91
2019-03-16T06:45:56.255Z,100142.53
2019-03-16T06:48:26.091Z,100139.47
2019-03-16T06:50:56.909Z,100146.20
2019-03-16T06:53:26.658Z,100151.25
2019-03-16T06:55:56.457Z,100146.86
2019-03-16T06:58:26.388Z,100150.45
2019-03-16T07:00:56.415Z,100154.45
2019-03-16T07:03:26.376Z,100141.80
2019-03-16T07:05:56.186Z,100147.88
2019-03-16T07:08:26.047Z,100148.67
2019-03-16T07:10:55.926Z,100142.34
2019-03-16T07:13:25.758Z,100148.78
2019-03-16T07:15:55.555Z,100149.86
2019-03-16T07:18:25.242Z,100146.55
2019-03-16T07:20:55.087Z,100156.25
2019-03-16T07:23:25.057Z,100151.48
2019-03-16T07:25:55.046Z,100158.36
2019-03-16T07:28:24.895Z,100160.05
2019-03-16T07:30:54.750Z,100165.95
2019-03-16T07:33:24.705Z,100168.34
2019-03-16T07:35:54.549Z,100164.05
2019-03-16T07:38:24.318Z,100168.22
2019-03-16T07:40:54.176Z,100179.63
2019-03-16T07:43:24.076Z,100176.80
2019-03-16T07:45:54.967Z,100187.02
2019-03-16T07:48:24.809Z,100189.77
2019-03-16T07:50:54.502Z,100193.97
2019-03-16T07:53:24.197Z,100193.05
2019-03-16T07:55:54.068Z,100197.83
2019-03-16T07:58:23.878Z,100199.06
2019-03-16T08:00:53.760Z,100202.25
2019-03-16T08:03:23.542Z,100200.56
2019-03-16T08:05:53.314Z,100206.90
2019-03-16T08:08:23.068Z,100204.14
2019-03-16T08:10:52.782Z,100214.73
2019-03-16T08:13:22.592Z,100199.55
2019-03-16T08:15:52.458Z,100204.02
2019-03-16T08:18:22.519Z,100202.12
2019-03-16T08:20:52.854Z,100207.73
2019-03-16T08:23:22.523Z,100197.34
2019-03-16T08:25:52.376Z,100207.70
2019-03-16T08:28:22.250Z,100206.77
2019-03-16T08:30:51.938Z,100203.45
2019-03-16T08:33:21.828Z,100212.23
2019-03-16T08:35:51.552Z,100208.83
2019-03-16T08:38:21.265Z,100202.51
2019-03-16T08:40:50.926Z,100200.52
2019-03-16T08:43:20.731Z,100193.47
2019-03-16T08:45:50.630Z,100192.83
2019-03-16T08:48:23.010Z,100198.64
2019-03-16T08:51:13.998Z,100199.45
2019-03-16T08:53:44.075Z,100196.66
2019-03-16T08:56:13.919Z,100199.20
2019-03-16T08:58:43.857Z,100190.05
2019-03-16T09:01:13.927Z,100199.09
2019-03-16T09:03:44.146Z,100203.09
2019-03-16T09:06:14.051Z,100202.90
2019-03-16T09:08:43.802Z,100212.27
2019-03-16T09:11:13.639Z,100214.28
2019-03-16T09:13:43.340Z,100216.34
2019-03-16T09:16:13.060Z,100226.70
2019-03-16T09:18:42.696Z,100228.27
2019-03-16T09:21:12.374Z,100224.03
2019-03-16T09:23:42.521Z,100231.69
2019-03-16T09:26:12.269Z,100231.53
2019-03-16T09:28:42.030Z,100217.20
2019-03-16T09:31:11.931Z,100227.42
2019-03-16T09:33:41.640Z,100225.23
2019-03-16T09:36:11.463Z,100226.53
2019-03-16T09:38:41.129Z,100242.37
2019-03-16T09:41:10.994Z,100245.84
2019-03-16T09:43:40.776Z,100252.39
2019-03-16T09:46:10.620Z,100261.33
2019-03-16T09:48:40.585Z,100260.80
2019-03-16T09:51:10.495Z,100255.27
2019-03-16T09:53:40.415Z,100249.81
2019-03-16T09:56:10.242Z,100258.72
2019-03-16T09:58:40.123Z,100261.56
2019-03-16T10:01:09.967Z,100256.70
2019-03-16T10:03:39.753Z,100255.98
2019-03-16T10:06:09.724Z,100258.55
2019-03-16T10:08:39.550Z,100257.47
2019-03-16T10:11:09.680Z,100255.00
2019-03-16T10:13:39.550Z,100246.77
2019-03-16T10:16:09.482Z,100255.59
2019-03-16T10:18:39.317Z,100255.02
2019-03-16T10:21:09.114Z,100247.95
2019-03-16T10:23:38.941Z,100249.31
2019-03-16T10:26:08.723Z,100250.03
2019-03-16T10:28:43.587Z,100250.91
2019-03-16T10:31:10.367Z,100250.11
2019-03-16T10:33:40.171Z,100255.77
2019-03-16T10:36:09.909Z,100248.18
2019-03-16T10:38:39.712Z,100246.75
2019-03-16T10:41:09.598Z,100242.92
2019-03-16T10:43:39.595Z,100237.59
2019-03-16T10:46:09.462Z,100230.19
2019-03-16T10:48:39.177Z,100229.28
2019-03-16T10:51:09.483Z,100221.55
2019-03-16T10:53:39.243Z,100212.66
2019-03-16T10:56:13.138Z,100212.66
2019-03-16T10:58:55.658Z,100208.96
2019-03-16T11:01:14.435Z,100211.23
2019-03-16T11:03:44.291Z,100201.64
2019-03-16T11:06:14.205Z,100201.16
2019-03-16T11:08:44.047Z,100191.98
2019-03-16T11:11:13.878Z,100193.19
2019-03-16T11:13:43.766Z,100192.09
2019-03-16T11:16:13.641Z,100183.27
2019-03-16T11:18:43.462Z,100179.22
2019-03-16T11:21:13.261Z,100178.39
2019-03-16T11:23:43.150Z,100160.38
2019-03-16T11:26:12.812Z,100158.70
2019-03-16T11:28:42.706Z,100142.52
2019-03-16T11:31:12.553Z,100146.46
2019-03-16T11:33:42.423Z,100143.09
2019-03-16T11:36:12.209Z,100138.49
2019-03-16T11:38:42.047Z,100146.67
2019-03-16T11:41:24.292Z,100141.00
2019-03-16T11:43:51.262Z,100127.70
2019-03-16T11:46:20.937Z,100121.98
2019-03-16T11:48:50.764Z,100107.41
2019-03-16T11:51:20.679Z,100102.79
2019-03-16T11:53:50.518Z,100102.83
2019-03-16T11:59:42.293Z,100106.83
2019-03-16T12:02:12.206Z,100106.33
2019-03-16T12:04:41.925Z,100098.63
2019-03-16T12:07:11.653Z,100104.18
2019-03-16T12:09:41.385Z,100098.36
2019-03-16T12:12:11.216Z,100095.88
2019-03-16T12:14:40.993Z,100093.55
2019-03-16T12:17:10.747Z,100086.83
2019-03-16T12:19:40.810Z,100068.08
2019-03-16T12:22:21.715Z,100077.77
2019-03-16T12:24:51.550Z,100075.47
2019-03-16T12:27:24.810Z,100070.52
2019-03-16T12:29:54.748Z,100067.83
2019-03-16T12:32:24.851Z,100070.31
2019-03-16T12:34:54.739Z,100070.67
2019-03-16T12:37:24.694Z,100063.11
2019-03-16T12:39:54.633Z,100067.89
2019-03-16T12:42:24.693Z,100063.86
2019-03-16T12:44:54.658Z,100067.49
2019-03-16T12:47:24.695Z,100054.63
2019-03-16T12:49:54.550Z,100044.23
2019-03-16T12:52:24.342Z,100042.86
2019-03-16T12:54:54.222Z,100036.77
2019-03-16T12:57:24.137Z,100032.44
2019-03-16T12:59:54.035Z,100033.53
2019-03-16T13:02:23.805Z,100033.43
2019-03-16T13:04:53.631Z,100020.05
2019-03-16T13:07:23.596Z,100017.77
2019-03-16T13:09:53.469Z,100012.47
2019-03-16T13:12:23.225Z,100014.88
2019-03-16T13:14:53.118Z,100009.25
2019-03-16T13:17:23.039Z,100001.20
2019-03-16T13:19:52.963Z,99992.70
2019-03-16T13:22:22.775Z,99992.58
2019-03-16T13:24:52.695Z,99985.13
2019-03-16T13:27:22.654Z,99985.00
2019-03-16T13:29:59.005Z,99979.77
2019-03-16T13:32:23.967Z,99970.84
2019-03-16T13:34:53.883Z,99962.03
2019-03-16T13:37:37.213Z,99961.26
2019-03-16T13:40:08.092Z,99961.29
2019-03-16T13:42:37.931Z,99946.34
2019-03-16T13:45:08.118Z,99934.22
2019-03-16T13:47:38.149Z,99932.16
2019-03-16T13:50:09.988Z,99933.02
2019-03-16T13:52:41.044Z,99916.92
2019-03-16T13:55:11.416Z,99918.98
2019-03-16T13:57:42.410Z,99907.80
2019-03-16T14:00:13.805Z,99891.40
2019-03-16T14:02:44.728Z,99899.91
2019-03-16T14:05:14.955Z,99887.57
2019-03-16T14:07:45.076Z,99892.41
2019-03-16T14:10:16.943Z,99879.86
2019-03-16T14:13:24.935Z,99876.60
2019-03-16T14:15:54.687Z,99873.75
2019-03-16T14:18:25.559Z,99870.13
2019-03-16T14:20:55.303Z,99860.34
2019-03-16T14:23:25.023Z,99875.89
2019-03-16T14:25:54.870Z,99875.30
2019-03-16T14:28:24.917Z,99863.55
2019-03-16T14:30:55.140Z,99871.50
2019-03-16T14:33:24.927Z,99852.27
2019-03-16T14:35:54.834Z,99850.06
2019-03-16T14:38:24.677Z,99846.02
2019-03-16T14:40:54.719Z,99838.03
2019-03-16T14:43:24.712Z,99834.42
2019-03-16T14:45:54.658Z,99829.37
2019-03-16T14:48:25.874Z,99827.89
2019-03-16T14:50:55.919Z,99833.55
2019-03-16T14:53:25.798Z,99834.05
2019-03-16T14:55:56.485Z,99831.28
2019-03-16T14:58:26.520Z,99837.53
2019-03-16T15:00:56.447Z,99833.33
2019-03-16T15:03:26.206Z,99826.76
2019-03-16T15:05:56.164Z,99823.14
2019-03-16T15:08:25.958Z,99819.31
2019-03-16T15:10:55.897Z,99816.89
2019-03-16T15:13:27.141Z,99816.89
2019-03-16T15:15:57.046Z,99811.80
2019-03-16T15:18:26.767Z,99816.27
2019-03-16T15:20:57.176Z,99807.17
2019-03-16T15:23:27.136Z,99804.13
2019-03-16T15:25:57.054Z,99800.53
2019-03-16T15:28:26.847Z,99785.58
2019-03-16T15:30:56.643Z,99787.27
2019-03-16T15:33:26.358Z,99782.70
2019-03-16T15:35:56.327Z,99777.03
2019-03-16T15:38:27.094Z,99777.97
2019-03-16T15:40:56.920Z,99770.77
2019-03-16T15:43:27.474Z,99772.06
2019-03-16T15:46:26.139Z,99770.06
2019-03-16T15:49:04.692Z,99771.14
2019-03-16T15:51:40.008Z,99767.76
2019-03-16T15:54:38.908Z,99763.11
2019-03-16T15:57:50.362Z,99763.53
2019-03-16T16:00:32.600Z,99762.38
2019-03-16T16:03:02.545Z,99755.48
2019-03-16T16:05:32.371Z,99757.12
2019-03-16T16:08:19.996Z,99754.91
2019-03-16T16:11:00.447Z,99745.58
2019-03-16T16:13:28.265Z,99750.05
2019-03-16T16:15:58.530Z,99756.97
2019-03-16T16:18:28.488Z,99754.93
2019-03-16T16:20:59.351Z,99755.52
2019-03-16T16:23:29.217Z,99753.27
2019-03-16T16:25:58.956Z,99754.48
2019-03-16T16:28:28.828Z,99756.70
2019-03-16T16:30:58.586Z,99755.70
2019-03-16T16:33:28.322Z,99749.60
2019-03-16T16:36:09.861Z,99750.02
2019-03-16T16:38:39.957Z,99744.86
2019-03-16T16:41:14.142Z,99749.81
2019-03-16T16:43:44.037Z,99747.00
2019-03-16T16:46:24.014Z,99741.31
2019-03-16T16:48:53.833Z,99747.38
2019-03-16T16:51:25.840Z,99741.11
2019-03-16T16:53:55.595Z,99729.75
2019-03-16T16:56:25.462Z,99733.20
2019-03-16T16:58:56.158Z,99732.41
2019-03-16T17:01:29.473Z,99730.57
2019-03-16T17:03:57.463Z,99736.72
2019-03-16T17:06:27.370Z,99732.25
2019-03-16T17:08:57.194Z,99728.38
2019-03-16T17:11:27.030Z,99732.69
2019-03-16T17:13:57.950Z,99734.10
2019-03-16T17:16:27.820Z,99729.25
2019-03-16T17:19:25.000Z,99729.24
2019-03-16T17:21:46.016Z,99721.75
2019-03-16T17:24:15.815Z,99719.52
2019-03-16T17:26:45.646Z,99727.63
2019-03-16T17:29:16.645Z,99723.98
2019-03-16T17:31:46.650Z,99723.59
2019-03-16T17:34:25.121Z,99715.27
2019-03-16T17:36:54.905Z,99710.41
2019-03-16T17:39:28.615Z,99714.05
2019-03-16T17:42:00.670Z,99702.52
2019-03-16T17:44:59.179Z,99702.52
2019-03-16T17:47:39.945Z,99708.41
2019-03-16T17:50:19.364Z,99706.81
2019-03-16T17:55:51.491Z,99701.52
2019-03-16T17:58:22.253Z,99703.16
2019-03-16T18:00:52.069Z,99697.08
2019-03-16T18:03:31.840Z,99692.41
2019-03-16T18:06:14.262Z,99695.84
2019-03-16T18:08:45.134Z,99698.70
2019-03-16T18:11:14.884Z,99696.05
2019-03-16T18:13:44.786Z,99698.08
2019-03-16T18:16:14.573Z,99694.81
2019-03-16T18:18:44.259Z,99695.84
2019-03-16T18:21:14.114Z,99698.11
2019-03-16T18:23:43.878Z,99686.69
2019-03-16T18:26:13.639Z,99690.57
2019-03-16T18:28:43.378Z,99695.42
2019-03-16T18:31:13.093Z,99693.63
2019-03-16T18:33:42.829Z,99693.80
2019-03-16T18:36:13.516Z,99691.17
2019-03-16T18:38:43.238Z,99695.22
2019-03-16T18:41:12.938Z,99693.22
2019-03-16T18:43:42.647Z,99691.00
2019-03-16T18:46:14.026Z,99693.22
2019-03-16T18:48:43.890Z,99691.59
2019-03-16T18:51:13.760Z,99688.94
2019-03-16T18:53:45.512Z,99689.77
2019-03-16T18:56:14.971Z,99679.19
2019-03-16T18:58:44.645Z,99675.73
2019-03-16T19:01:14.376Z,99677.97
2019-03-16T19:03:45.002Z,99682.42
2019-03-16T19:06:15.132Z,99669.62
2019-03-16T19:08:45.092Z,99674.92
2019-03-16T19:11:14.852Z,99666.13
2019-03-16T19:13:44.561Z,99672.06
2019-03-16T19:16:14.368Z,99684.41
2019-03-16T19:18:44.051Z,99681.10
2019-03-16T19:21:13.869Z,99686.13
2019-03-16T19:23:43.658Z,99682.91
2019-03-16T19:26:13.510Z,99687.36
2019-03-16T19:28:44.664Z,99690.75
2019-03-16T19:31:17.805Z,99692.97
2019-03-16T19:33:49.049Z,99693.47
2019-03-16T19:36:18.864Z,99684.59
2019-03-16T19:38:49.399Z,99689.21
2019-03-16T19:41:19.183Z,99682.89
2019-03-16T19:43:50.302Z,99678.27
2019-03-16T19:46:20.244Z,99671.97
2019-03-16T19:48:50.008Z,99673.84
2019-03-16T19:51:20.882Z,99676.37
2019-03-16T19:53:50.550Z,99678.20
2019-03-16T19:56:20.638Z,99673.55
2019-03-16T19:59:00.071Z,99675.80
2019-03-16T20:01:21.788Z,99676.00
2019-03-16T20:03:51.497Z,99676.38
2019-03-16T20:06:26.046Z,99679.25
2019-03-16T20:08:52.643Z,99674.50
2019-03-16T20:11:25.656Z,99670.77
2019-03-16T20:13:55.576Z,99673.77
2019-03-16T20:16:25.638Z,99680.99
2019-03-16T20:18:55.341Z,99669.40
2019-03-16T20:21:34.005Z,99673.35
2019-03-16T20:24:03.920Z,99670.48
2019-03-16T20:26:33.578Z,99660.89
2019-03-16T20:29:03.390Z,99663.30
2019-03-16T20:31:33.175Z,99661.94
2019-03-16T20:34:13.823Z,99655.16
2019-03-16T20:36:46.671Z,99656.09
2019-03-16T20:39:16.353Z,99657.37
2019-03-16T20:48:29.941Z,99634.88
2019-03-16T20:50:59.420Z,99638.39
2019-03-16T20:53:28.520Z,99637.34
2019-03-16T20:55:57.293Z,99641.79
2019-03-16T20:58:26.182Z,99631.92
2019-03-16T21:00:57.944Z,99642.30
2019-03-16T21:03:25.428Z,99635.09
2019-03-16T21:05:54.242Z,99642.72
2019-03-16T21:08:30.299Z,99642.41
2019-03-16T21:10:59.283Z,99635.55
2019-03-16T21:13:28.258Z,99636.48
2019-03-16T21:15:58.266Z,99638.01
2019-03-16T21:18:27.062Z,99639.05
2019-03-16T21:20:58.528Z,99635.84
2019-03-16T21:23:27.398Z,99639.42
2019-03-16T21:25:56.195Z,99635.91
2019-03-16T21:28:25.054Z,99630.49
2019-03-16T21:30:53.973Z,99632.80
2019-03-16T21:33:29.430Z,99627.11
2019-03-16T21:35:54.811Z,99620.41
2019-03-16T21:38:23.764Z,99618.80
2019-03-16T21:40:52.728Z,99616.97
2019-03-16T21:44:49.249Z,99608.48
2019-03-16T21:48:20.622Z,99614.79
2019-03-16T21:50:50.680Z,99605.33
2019-03-16T21:53:20.758Z,99612.48
2019-03-16T21:55:50.617Z,99606.75
2019-03-16T21:58:20.871Z,99609.16
2019-03-16T22:00:50.679Z,99603.54
2019-03-16T22:03:20.826Z,99600.75
2019-03-16T22:05:50.976Z,99595.70
2019-03-16T22:08:20.938Z,99597.95
2019-03-16T22:10:50.963Z,99594.09
2019-03-16T22:13:20.662Z,99596.72
2019-03-16T22:15:50.714Z,99583.89
2019-03-16T22:18:20.606Z,99581.80
2019-03-16T22:20:59.180Z,99573.85
2019-03-16T22:23:30.549Z,99566.14
2019-03-16T22:26:00.209Z,99555.36
2019-03-16T22:28:29.955Z,99553.08
2019-03-16T22:30:59.608Z,99546.56
2019-03-16T22:33:29.362Z,99547.53
2019-03-16T22:35:59.098Z,99542.93
2019-03-16T22:38:28.933Z,99546.55
2019-03-16T22:40:58.871Z,99534.48
2019-03-16T22:43:28.722Z,99532.98
2019-03-16T22:45:58.434Z,99538.20
2019-03-16T22:48:28.275Z,99538.50
2019-03-16T22:50:58.293Z,99530.66
2019-03-16T22:53:28.022Z,99534.98
2019-03-16T22:55:57.686Z,99526.85
2019-03-16T22:58:27.345Z,99525.21
2019-03-16T23:00:57.019Z,99524.81
2019-03-16T23:03:26.726Z,99522.98
2019-03-16T23:05:56.356Z,99521.12
2019-03-16T23:08:26.118Z,99527.16
2019-03-16T23:10:55.927Z,99521.64
2019-03-16T23:13:25.643Z,99517.52
2019-03-16T23:15:55.348Z,99512.02
2019-03-16T23:18:25.158Z,99513.73
2019-03-16T23:20:54.870Z,99506.16
2019-03-16T23:23:24.558Z,99502.02
2019-03-16T23:25:54.399Z,99505.15
2019-03-16T23:28:24.163Z,99499.19
2019-03-16T23:30:53.992Z,99498.02
2019-03-16T23:33:23.839Z,99495.08
2019-03-16T23:35:53.676Z,99488.10
2019-03-16T23:38:24.510Z,99489.20
2019-03-16T23:40:54.177Z,99477.80
2019-03-16T23:43:23.882Z,99474.28
2019-03-16T23:45:53.785Z,99469.09
2019-03-16T23:48:23.521Z,99468.57
2019-03-16T23:50:53.769Z,99462.05
2019-03-16T23:53:23.510Z,99462.34
2019-03-16T23:55:53.622Z,99460.65
2019-03-16T23:58:23.349Z,99457.74
